createdAt,value
2019-01-15T00:03:53.469Z,43.49
2019-01-15T00:08:57.270Z,43.32
2019-01-15T00:14:01.101Z,43.32
2019-01-15T00:19:04.986Z,43.18
2019-01-15T00:24:08.768Z,43.70
2019-01-15T00:29:12.558Z,44.42
2019-01-15T00:34:16.416Z,44.19
2019-01-15T00:39:20.323Z,44.19
2019-01-15T00:44:24.157Z,44.07
2019-01-15T00:49:28.074Z,44.23
2019-01-15T00:54:31.908Z,44.19
2019-01-15T00:59:35.714Z,44.38
2019-01-15T01:04:39.584Z,44.29
2019-01-15T01:09:43.425Z,44.64
2019-01-15T01:14:47.306Z,44.46
2019-01-15T01:19:51.092Z,44.05
2019-01-15T01:24:54.911Z,44.05
2019-01-15T01:29:58.766Z,44.13
2019-01-15T01:35:02.642Z,43.93
2019-01-15T01:40:07.843Z,44.14
2019-01-15T01:45:12.384Z,44.83
2019-01-15T01:50:16.202Z,44.45
2019-01-15T01:55:20.028Z,44.68
2019-01-15T02:00:24.038Z,44.17
2019-01-15T02:05:27.823Z,44.71
2019-01-15T02:10:31.650Z,44.71
2019-01-15T02:15:35.469Z,44.81
2019-01-15T02:20:39.252Z,44.72
2019-01-15T02:25:43.023Z,45.46
2019-01-15T02:30:47.071Z,45.46
2019-01-15T02:35:50.870Z,45.41
2019-01-15T02:40:54.660Z,45.57
2019-01-15T02:45:58.568Z,45.57
2019-01-15T02:51:02.354Z,44.99
2019-01-15T02:56:06.131Z,45.02
2019-01-15T03:01:09.948Z,45.13
2019-01-15T03:06:13.877Z,45.13
2019-01-15T03:11:17.655Z,45.45
2019-01-15T03:16:21.518Z,45.45
2019-01-15T03:21:26.160Z,45.33
2019-01-15T03:26:30.158Z,45.48
2019-01-15T03:31:33.943Z,45.48
2019-01-15T03:36:37.856Z,45.82
2019-01-15T03:41:41.644Z,46.09
2019-01-15T03:46:45.459Z,46.09
2019-01-15T03:51:49.244Z,45.83
2019-01-15T03:56:53.498Z,45.92
2019-01-15T04:01:57.286Z,45.92
2019-01-15T04:07:01.276Z,45.04
2019-01-15T04:12:05.063Z,45.04
2019-01-15T04:17:08.898Z,45.35
2019-01-15T04:22:12.744Z,45.55
2019-01-15T04:27:16.561Z,45.66
2019-01-15T04:32:20.329Z,45.66
2019-01-15T04:37:24.210Z,45.57
2019-01-15T04:42:28.033Z,45.58
2019-01-15T04:47:31.971Z,45.94
2019-01-15T04:52:36.381Z,45.94
2019-01-15T04:57:40.423Z,45.37
2019-01-15T05:02:44.376Z,45.19
2019-01-15T05:07:48.273Z,45.21
2019-01-15T05:12:52.049Z,45.38
2019-01-15T05:17:55.838Z,44.97
2019-01-15T05:22:59.632Z,45.43
2019-01-15T05:28:03.409Z,45.01
2019-01-15T05:33:07.296Z,45.33
2019-01-15T05:38:11.254Z,44.94
2019-01-15T05:43:16.883Z,45.30
2019-01-15T05:48:24.606Z,45.30
2019-01-15T05:53:28.371Z,44.62
2019-01-15T05:58:32.174Z,44.72
2019-01-15T06:03:36.072Z,44.72
2019-01-15T06:08:39.941Z,44.74
2019-01-15T06:13:43.863Z,45.01
2019-01-15T06:18:47.738Z,44.76
2019-01-15T06:23:51.523Z,44.76
2019-01-15T06:28:55.483Z,44.76
2019-01-15T06:33:59.348Z,45.21
2019-01-15T06:39:04.297Z,45.33
2019-01-15T06:44:08.108Z,45.18
2019-01-15T06:49:11.919Z,45.00
2019-01-15T06:54:15.731Z,45.02
2019-01-15T06:59:19.529Z,44.87
2019-01-15T07:04:23.384Z,44.87
2019-01-15T07:09:27.245Z,45.04
2019-01-15T07:14:31.043Z,45.17
2019-01-15T07:19:34.829Z,45.02
2019-01-15T07:24:38.667Z,44.74
2019-01-15T07:29:42.476Z,44.51
2019-01-15T07:34:46.278Z,44.51
2019-01-15T07:39:50.156Z,45.14
2019-01-15T07:44:54.015Z,45.35
2019-01-15T07:49:57.835Z,45.35
2019-01-15T07:55:01.632Z,40.66
2019-01-15T08:00:06.939Z,40.66
2019-01-15T08:05:11.185Z,36.71
2019-01-15T08:10:15.628Z,35.74
2019-01-15T08:15:21.286Z,37.46
2019-01-15T08:20:25.079Z,37.46
2019-01-15T08:25:28.898Z,34.72
2019-01-15T08:30:35.122Z,34.72
2019-01-15T08:35:39.007Z,35.94
2019-01-15T08:40:42.843Z,35.68
2019-01-15T08:45:46.643Z,35.68
2019-01-15T08:50:52.471Z,37.31
2019-01-15T08:55:58.060Z,37.61
2019-01-15T09:01:01.837Z,38.42
2019-01-15T09:06:05.615Z,38.42
2019-01-15T09:11:09.386Z,39.29
2019-01-15T09:16:13.189Z,40.05
2019-01-15T09:21:17.056Z,40.05
2019-01-15T09:26:20.914Z,40.13
2019-01-15T09:31:24.699Z,40.37
2019-01-15T09:36:28.498Z,40.76
2019-01-15T09:41:32.634Z,40.76
2019-01-15T09:46:36.444Z,40.67
2019-01-15T09:51:40.220Z,40.84
2019-01-15T09:56:44.004Z,40.07
2019-01-15T10:01:47.827Z,40.07
2019-01-15T10:06:51.666Z,39.84
2019-01-15T10:11:55.530Z,40.06
2019-01-15T10:16:59.315Z,38.95
2019-01-15T10:22:03.173Z,39.15
2019-01-15T10:27:07.731Z,39.15
2019-01-15T10:32:42.338Z,40.05
2019-01-15T10:37:46.134Z,39.83
2019-01-15T10:42:49.922Z,40.35
2019-01-15T10:47:53.731Z,40.35
2019-01-15T10:52:57.525Z,40.04
2019-01-15T10:58:01.350Z,40.14
2019-01-15T11:03:05.152Z,40.06
2019-01-15T11:08:08.996Z,40.29
2019-01-15T11:13:12.853Z,40.48
2019-01-15T11:18:16.739Z,40.16
2019-01-15T11:23:20.560Z,40.74
2019-01-15T11:28:24.527Z,40.74
2019-01-15T11:33:28.402Z,41.09
2019-01-15T11:38:32.229Z,41.40
2019-01-15T11:43:36.105Z,41.40
2019-01-15T11:48:39.953Z,41.40
2019-01-15T11:53:43.845Z,41.32
2019-01-15T11:58:47.912Z,41.51
2019-01-15T12:04:02.550Z,41.22
2019-01-15T12:09:32.129Z,42.02
2019-01-15T12:14:57.776Z,42.02
2019-01-15T12:20:15.084Z,33.91
2019-01-15T12:25:53.467Z,37.47
2019-01-15T12:31:22.267Z,33.23
2019-01-15T12:36:39.559Z,33.23
2019-01-15T12:42:02.342Z,33.94
2019-01-15T12:47:24.249Z,33.99
2019-01-15T12:52:45.850Z,36.03
2019-01-15T12:58:07.323Z,36.87
2019-01-15T13:03:29.040Z,39.37
2019-01-15T13:08:54.200Z,39.70
2019-01-15T13:14:05.387Z,39.70
2019-01-15T13:19:26.878Z,42.29
2019-01-15T13:24:58.759Z,42.09
2019-01-15T13:30:10.229Z,41.61
2019-01-15T13:35:25.089Z,41.32
2019-01-15T13:40:50.205Z,41.32
2019-01-15T13:46:08.974Z,40.60
2019-01-15T13:51:30.729Z,40.60
2019-01-15T13:56:52.281Z,41.12
2019-01-15T14:02:23.825Z,41.24
2019-01-15T14:07:37.900Z,41.24
2019-01-15T14:12:59.535Z,40.95
2019-01-15T14:18:20.937Z,40.88
2019-01-15T14:23:43.724Z,40.88
2019-01-15T14:28:54.932Z,40.87
2019-01-15T14:34:23.243Z,41.04
2019-01-15T14:39:48.780Z,41.04
2019-01-15T14:45:15.630Z,41.56
2019-01-15T14:50:41.453Z,37.63
2019-01-15T14:56:05.602Z,36.67
2019-01-15T15:01:43.549Z,35.98
2019-01-15T15:06:59.446Z,37.87
2019-01-15T15:12:21.049Z,39.09
2019-01-15T15:17:39.394Z,39.09
2019-01-15T15:23:00.632Z,38.63
2019-01-15T15:28:32.324Z,37.96
2019-01-15T15:33:53.939Z,37.96
2019-01-15T15:39:13.496Z,39.43
2019-01-15T15:44:30.759Z,39.43
2019-01-15T15:49:54.183Z,40.72
2019-01-15T15:55:16.216Z,40.96
2019-01-15T16:00:37.798Z,41.35
2019-01-15T16:06:06.398Z,42.54
2019-01-15T16:11:32.189Z,41.64
2019-01-15T16:17:00.738Z,41.71
2019-01-15T16:22:22.176Z,41.21
2019-01-15T16:27:44.596Z,41.65
2019-01-15T16:33:05.986Z,41.65
2019-01-15T16:38:37.598Z,42.03
2019-01-15T16:44:12.736Z,42.35
2019-01-15T16:49:31.320Z,42.18
2019-01-15T16:54:53.027Z,42.85
2019-01-15T17:00:14.739Z,42.85
2019-01-15T17:05:42.219Z,42.28
2019-01-15T17:11:08.043Z,42.04
2019-01-15T17:16:34.698Z,42.04
2019-01-15T17:22:00.279Z,41.65
2019-01-15T17:27:23.067Z,41.65
2019-01-15T17:32:39.098Z,42.91
2019-01-15T17:37:53.362Z,42.68
2019-01-15T17:43:16.117Z,42.17
2019-01-15T17:48:40.011Z,42.17
2019-01-15T17:54:02.773Z,41.84
2019-01-15T17:59:24.256Z,42.03
2019-01-15T18:04:41.759Z,41.91
2019-01-15T18:10:04.365Z,41.72
2019-01-15T18:15:29.561Z,41.80
2019-01-15T18:21:04.663Z,41.80
2019-01-15T18:26:39.943Z,41.40
2019-01-15T18:31:56.196Z,41.84
2019-01-15T18:37:28.491Z,41.67
2019-01-15T18:42:50.029Z,41.67
2019-01-15T18:48:12.770Z,41.62
2019-01-15T18:53:37.919Z,41.34
2019-01-15T18:58:52.602Z,41.88
2019-01-15T19:04:30.552Z,41.88
2019-01-15T19:09:57.052Z,41.04
2019-01-15T19:15:18.514Z,41.02
2019-01-15T19:20:30.803Z,41.02
2019-01-15T19:26:02.472Z,41.09
2019-01-15T19:31:31.102Z,40.93
2019-01-15T19:36:53.275Z,40.95
2019-01-15T19:42:07.120Z,40.95
2019-01-15T19:47:22.633Z,40.77
2019-01-15T19:52:40.169Z,41.15
2019-01-15T19:58:12.106Z,41.15
2019-01-15T20:03:33.753Z,41.32
2019-01-15T20:09:02.338Z,41.32
2019-01-15T20:14:29.150Z,41.72
2019-01-15T20:19:50.753Z,41.88
2019-01-15T20:25:12.629Z,41.52
2019-01-15T20:30:44.457Z,41.71
2019-01-15T20:36:06.239Z,41.92
2019-01-15T20:41:27.968Z,41.92
2019-01-15T20:46:49.709Z,42.71
2019-01-15T20:52:18.356Z,42.71
2019-01-15T20:57:40.059Z,42.47
2019-01-15T21:03:03.280Z,42.86
2019-01-15T21:08:17.953Z,42.86
2019-01-15T21:13:39.621Z,42.83
2019-01-15T21:19:14.678Z,43.67
2019-01-15T21:24:40.212Z,43.68
2019-01-15T21:30:06.038Z,43.68
2019-01-15T21:35:33.178Z,43.50
2019-01-15T21:40:48.911Z,43.14
2019-01-15T21:46:17.676Z,43.80
2019-01-15T21:51:39.445Z,43.69
2019-01-15T21:57:01.139Z,43.19
2019-01-15T22:02:35.731Z,43.19
2019-01-15T22:07:58.498Z,43.64
2019-01-15T22:13:27.380Z,42.40
2019-01-15T22:19:05.362Z,43.88
2019-01-15T22:24:31.135Z,43.29
2019-01-15T22:30:00.102Z,43.95
2019-01-15T22:35:23.855Z,44.12
2019-01-15T22:40:52.155Z,44.12
2019-01-15T22:46:27.262Z,42.62
2019-01-15T22:51:49.135Z,43.63
2019-01-15T22:57:00.146Z,42.34
2019-01-15T23:02:29.893Z,42.34
2019-01-15T23:07:56.004Z,43.12
2019-01-15T23:13:30.876Z,43.56
2019-01-15T23:18:45.173Z,43.19
2019-01-15T23:24:01.404Z,43.19
2019-01-15T23:29:16.256Z,43.10
2019-01-15T23:34:37.954Z,43.10
2019-01-15T23:40:06.741Z,43.28
2019-01-15T23:45:26.000Z,42.67
2019-01-15T23:50:49.154Z,42.67
2019-01-15T23:56:10.758Z,43.31
